createdAt,value
2019-04-28T00:01:57.963Z,11.55
2019-04-28T00:04:34.214Z,11.58
2019-04-28T00:07:11.911Z,11.60
2019-04-28T00:09:47.977Z,11.59
2019-04-28T00:12:23.924Z,11.58
2019-04-28T00:14:59.888Z,11.61
2019-04-28T00:17:35.850Z,11.59
2019-04-28T00:20:13.647Z,11.58
2019-04-28T00:23:01.394Z,11.56
2019-04-28T00:25:41.066Z,11.55
2019-04-28T00:28:17.079Z,11.51
2019-04-28T00:30:53.130Z,11.50
2019-04-28T00:33:29.099Z,11.50
2019-04-28T00:36:05.145Z,11.47
2019-04-28T00:38:41.572Z,11.46
2019-04-28T00:41:17.596Z,11.44
2019-04-28T00:43:53.637Z,11.39
2019-04-28T00:46:31.193Z,11.39
2019-04-28T00:49:07.291Z,11.34
2019-04-28T00:51:43.421Z,11.33
2019-04-28T00:54:19.401Z,11.35
2019-04-28T00:56:56.074Z,11.35
2019-04-28T00:59:32.039Z,11.34
2019-04-28T01:02:11.127Z,11.35
2019-04-28T01:04:47.217Z,11.36
2019-04-28T01:07:23.184Z,11.36
2019-04-28T01:09:59.132Z,11.35
2019-04-28T01:12:35.397Z,11.35
2019-04-28T01:15:13.819Z,11.34
2019-04-28T01:17:54.383Z,11.34
2019-04-28T01:20:30.340Z,11.32
2019-04-28T01:23:06.287Z,11.29
2019-04-28T01:25:42.241Z,11.24
2019-04-28T01:28:19.488Z,11.21
2019-04-28T01:30:57.538Z,11.14
2019-04-28T01:33:44.389Z,11.13
2019-04-28T01:36:20.413Z,11.11
2019-04-28T01:38:56.363Z,11.12
2019-04-28T01:41:32.336Z,11.04
2019-04-28T01:44:10.097Z,11.03
2019-04-28T01:46:45.874Z,11.02
2019-04-28T01:49:21.841Z,11.01
2019-04-28T01:52:01.047Z,10.97
2019-04-28T01:54:37.123Z,11.02
2019-04-28T01:57:13.077Z,11.03
2019-04-28T01:59:49.970Z,11.07
2019-04-28T02:02:26.016Z,11.06
2019-04-28T02:05:01.983Z,11.05
2019-04-28T02:07:37.941Z,11.11
2019-04-28T02:10:14.100Z,11.11
2019-04-28T02:12:50.393Z,11.07
2019-04-28T02:15:26.514Z,11.04
2019-04-28T02:18:02.471Z,11.13
2019-04-28T02:20:40.076Z,11.14
2019-04-28T02:23:17.556Z,11.18
2019-04-28T02:25:53.518Z,11.17
2019-04-28T02:28:29.685Z,11.24
2019-04-28T02:31:05.645Z,11.21
2019-04-28T02:33:41.808Z,11.18
2019-04-28T02:36:20.690Z,11.24
2019-04-28T02:38:57.698Z,11.17
2019-04-28T02:41:33.953Z,11.19
2019-04-28T02:44:10.453Z,11.08
2019-04-28T02:46:46.912Z,11.11
2019-04-28T02:49:30.512Z,11.07
2019-04-28T02:52:10.678Z,11.06
2019-04-28T02:54:46.801Z,11.04
2019-04-28T02:57:23.015Z,11.01
2019-04-28T03:00:00.433Z,11.03
2019-04-28T03:02:36.562Z,11.03
2019-04-28T03:05:12.533Z,11.00
2019-04-28T03:07:51.431Z,10.97
2019-04-28T03:10:27.610Z,10.93
2019-04-28T03:13:03.565Z,10.90
2019-04-28T03:15:41.398Z,10.82
2019-04-28T03:18:17.221Z,10.82
2019-04-28T03:20:53.174Z,10.84
2019-04-28T03:23:31.141Z,10.86
2019-04-28T03:26:14.828Z,10.81
2019-04-28T03:29:01.342Z,10.85
2019-04-28T03:32:04.235Z,10.85
2019-04-28T03:34:16.612Z,10.87
2019-04-28T03:36:52.655Z,10.80
2019-04-28T03:39:30.301Z,10.79
2019-04-28T03:42:06.438Z,10.71
2019-04-28T03:44:42.386Z,10.77
2019-04-28T03:47:21.038Z,10.74
2019-04-28T03:49:57.124Z,10.72
2019-04-28T03:52:33.133Z,10.72
2019-04-28T03:55:11.749Z,10.76
2019-04-28T03:57:47.080Z,10.74
2019-04-28T04:00:23.051Z,10.70
2019-04-28T04:03:00.808Z,10.68
2019-04-28T04:05:36.690Z,10.72
2019-04-28T04:08:12.654Z,10.74
2019-04-28T04:10:50.449Z,10.80
2019-04-28T04:13:41.601Z,10.70
2019-04-28T04:16:20.677Z,10.69
2019-04-28T04:19:00.734Z,10.67
2019-04-28T04:21:36.173Z,10.61
2019-04-28T04:24:12.078Z,10.63
2019-04-28T04:26:50.491Z,10.59
2019-04-28T04:29:25.755Z,10.54
2019-04-28T04:32:11.713Z,10.55
2019-04-28T04:34:40.851Z,10.50
2019-04-28T04:37:16.950Z,10.49
2019-04-28T04:39:52.859Z,10.44
2019-04-28T04:42:30.602Z,10.43
2019-04-28T04:45:06.968Z,10.47
2019-04-28T04:47:42.926Z,10.46
2019-04-28T04:50:20.879Z,10.46
2019-04-28T04:52:56.456Z,10.42
2019-04-28T04:55:33.088Z,10.45
2019-04-28T04:58:10.765Z,10.45
2019-04-28T05:01:00.839Z,10.43
2019-04-28T05:03:44.421Z,10.43
2019-04-28T05:06:36.811Z,10.41
2019-04-28T05:09:12.752Z,10.39
2019-04-28T05:11:49.968Z,10.48
2019-04-28T05:14:26.048Z,10.46
2019-04-28T05:17:01.932Z,10.39
2019-04-28T05:19:40.041Z,10.37
2019-04-28T05:22:17.057Z,10.32
2019-04-28T05:24:57.496Z,10.36
2019-04-28T05:27:33.420Z,10.36
2019-04-28T05:30:10.428Z,10.37
2019-04-28T05:32:53.639Z,10.40
2019-04-28T05:35:25.258Z,10.45
2019-04-28T05:38:01.281Z,10.44
2019-04-28T05:40:37.238Z,10.47
2019-04-28T05:43:13.218Z,10.51
2019-04-28T05:45:49.889Z,10.53
2019-04-28T05:48:36.425Z,10.57
2019-04-28T05:51:23.582Z,10.64
2019-04-28T05:54:01.337Z,10.65
2019-04-28T05:56:44.654Z,10.72
2019-04-28T05:59:22.134Z,10.76
2019-04-28T06:02:02.297Z,10.80
2019-04-28T06:04:38.321Z,10.75
2019-04-28T06:07:20.233Z,10.81
2019-04-28T06:09:55.916Z,10.88
2019-04-28T06:12:31.993Z,10.84
2019-04-28T06:15:10.370Z,10.93
2019-04-28T06:17:45.737Z,10.93
2019-04-28T06:20:21.643Z,10.91
2019-04-28T06:22:57.612Z,11.03
2019-04-28T06:25:33.560Z,11.07
2019-04-28T06:28:09.728Z,11.10
2019-04-28T06:30:45.664Z,11.12
2019-04-28T06:33:21.624Z,11.24
2019-04-28T06:35:57.591Z,11.18
2019-04-28T06:38:33.456Z,11.22
2019-04-28T06:41:09.686Z,11.23
2019-04-28T06:43:45.567Z,11.27
2019-04-28T06:46:21.582Z,11.34
2019-04-28T06:48:57.577Z,11.45
2019-04-28T06:51:33.482Z,11.48
2019-04-28T06:54:10.923Z,11.46
2019-04-28T06:56:46.883Z,11.56
2019-04-28T06:59:23.953Z,11.50
2019-04-28T07:02:00.946Z,11.48
2019-04-28T07:04:36.889Z,11.64
2019-04-28T07:07:12.860Z,11.68
2019-04-28T07:09:48.824Z,11.77
2019-04-28T07:12:24.769Z,11.90
2019-04-28T07:15:00.634Z,11.89
2019-04-28T07:17:37.051Z,11.87
2019-04-28T07:20:18.870Z,11.82
2019-04-28T07:22:54.828Z,11.78
2019-04-28T07:25:31.107Z,11.84
2019-04-28T07:28:07.049Z,11.99
2019-04-28T07:30:43.108Z,11.94
2019-04-28T07:33:21.481Z,11.86
2019-04-28T07:35:57.487Z,11.96
2019-04-28T07:38:33.446Z,12.02
2019-04-28T07:41:09.389Z,12.13
2019-04-28T07:43:45.369Z,12.08
2019-04-28T07:46:21.334Z,12.22
2019-04-28T07:48:57.275Z,12.17
2019-04-28T07:51:37.724Z,12.30
2019-04-28T07:54:15.215Z,12.33
2019-04-28T07:56:51.277Z,12.36
2019-04-28T07:59:27.231Z,12.40
2019-04-28T08:02:03.191Z,12.41
2019-04-28T08:04:39.150Z,12.41
2019-04-28T08:07:15.099Z,12.40
2019-04-28T08:09:51.066Z,12.39
2019-04-28T08:12:26.971Z,12.51
2019-04-28T08:15:03.081Z,12.67
2019-04-28T08:17:39.659Z,12.59
2019-04-28T08:20:15.812Z,12.53
2019-04-28T08:22:51.768Z,12.44
2019-04-28T08:25:27.731Z,12.53
2019-04-28T08:28:04.812Z,12.51
2019-04-28T08:30:40.753Z,12.62
2019-04-28T08:33:18.249Z,12.75
2019-04-28T08:35:54.216Z,12.80
2019-04-28T08:38:30.261Z,12.73
2019-04-28T08:41:06.220Z,12.82
2019-04-28T08:43:42.950Z,13.00
2019-04-28T08:46:18.826Z,13.09
2019-04-28T08:48:54.747Z,13.35
2019-04-28T08:51:30.670Z,13.53
2019-04-28T08:54:06.683Z,13.47
2019-04-28T08:56:42.587Z,13.28
2019-04-28T08:59:18.718Z,13.14
2019-04-28T09:01:54.635Z,13.13
2019-04-28T09:04:30.542Z,13.15
2019-04-28T09:07:06.498Z,13.34
2019-04-28T09:12:30.369Z,13.40
2019-04-28T09:15:10.718Z,13.41
2019-04-28T09:17:47.096Z,13.43
2019-04-28T09:20:23.063Z,13.33
2019-04-28T09:22:59.020Z,13.41
2019-04-28T09:25:34.966Z,13.57
2019-04-28T09:28:11.446Z,13.71
2019-04-28T09:30:47.905Z,13.55
2019-04-28T09:33:23.962Z,13.36
2019-04-28T09:35:59.919Z,13.55
2019-04-28T09:38:36.623Z,13.61
2019-04-28T09:41:12.550Z,13.63
2019-04-28T09:43:56.389Z,13.59
2019-04-28T09:46:39.920Z,13.66
2019-04-28T09:49:15.890Z,13.52
2019-04-28T09:51:51.946Z,13.58
2019-04-28T09:54:28.007Z,13.63
2019-04-28T09:57:04.160Z,13.69
2019-04-28T09:59:40.319Z,13.85
2019-04-28T10:02:16.694Z,13.83
2019-04-28T10:04:54.177Z,13.85
2019-04-28T10:07:30.100Z,13.71
2019-04-28T10:10:08.455Z,13.74
2019-04-28T10:12:44.352Z,13.79
2019-04-28T10:15:20.570Z,13.75
2019-04-28T10:17:56.933Z,13.71
2019-04-28T10:20:32.895Z,13.72
2019-04-28T10:23:08.852Z,13.86
2019-04-28T10:25:46.174Z,14.03
2019-04-28T10:28:22.092Z,14.11
2019-04-28T10:30:58.192Z,14.02
2019-04-28T10:33:34.101Z,13.94
2019-04-28T10:36:10.057Z,13.85
2019-04-28T10:38:47.614Z,13.93
2019-04-28T10:41:28.262Z,14.01
2019-04-28T10:44:05.302Z,13.93
2019-04-28T10:46:41.977Z,13.93
2019-04-28T10:49:20.332Z,14.01
2019-04-28T10:51:59.578Z,14.02
2019-04-28T10:54:33.949Z,13.97
2019-04-28T10:57:09.915Z,14.04
2019-04-28T10:59:45.971Z,14.14
2019-04-28T11:02:21.876Z,14.13
2019-04-28T11:05:08.584Z,14.22
2019-04-28T11:07:39.834Z,14.30
2019-04-28T11:10:22.268Z,14.27
2019-04-28T11:12:58.241Z,14.34
2019-04-28T11:15:37.981Z,14.34
2019-04-28T11:18:15.489Z,14.16
2019-04-28T11:20:51.474Z,14.15
2019-04-28T11:23:27.386Z,14.07
2019-04-28T11:26:03.275Z,14.09
2019-04-28T11:28:39.289Z,14.18
2019-04-28T11:31:15.358Z,14.26
2019-04-28T11:33:53.919Z,14.19
2019-04-28T11:36:29.941Z,14.32
2019-04-28T11:39:08.687Z,14.38
2019-04-28T11:41:46.152Z,14.29
2019-04-28T11:44:22.258Z,14.37
2019-04-28T11:46:58.359Z,14.24
2019-04-28T11:49:34.325Z,14.27
2019-04-28T11:52:10.343Z,14.24
2019-04-28T11:54:46.328Z,14.32
2019-04-28T11:57:22.288Z,14.37
2019-04-28T11:59:58.255Z,14.25
2019-04-28T12:02:34.197Z,14.53
2019-04-28T12:05:11.401Z,14.48
2019-04-28T12:07:47.337Z,14.40
2019-04-28T12:10:37.233Z,14.41
2019-04-28T12:13:17.683Z,14.45
2019-04-28T12:15:58.159Z,14.48
2019-04-28T12:18:44.859Z,14.43
2019-04-28T12:21:21.231Z,14.40
2019-04-28T12:23:57.194Z,14.51
2019-04-28T12:26:33.147Z,14.57
2019-04-28T12:29:09.105Z,14.56
2019-04-28T12:31:45.056Z,14.54
2019-04-28T12:34:21.002Z,14.44
2019-04-28T12:36:56.972Z,14.42
2019-04-28T12:39:33.018Z,14.30
2019-04-28T12:42:09.956Z,14.35
2019-04-28T12:44:46.257Z,14.53
2019-04-28T12:47:22.228Z,14.36
2019-04-28T12:49:59.828Z,14.23
2019-04-28T12:52:35.873Z,14.17
2019-04-28T12:55:12.138Z,14.00
2019-04-28T12:57:48.101Z,13.89
2019-04-28T13:00:28.905Z,13.84
2019-04-28T13:03:22.948Z,13.85
2019-04-28T13:06:04.004Z,13.83
2019-04-28T13:08:38.734Z,13.70
2019-04-28T13:11:16.058Z,13.61
2019-04-28T13:13:52.106Z,13.59
2019-04-28T13:16:28.059Z,13.41
2019-04-28T13:19:04.582Z,13.34
2019-04-28T13:21:42.262Z,13.37
2019-04-28T13:24:18.184Z,13.31
2019-04-28T13:26:54.452Z,13.34
2019-04-28T13:29:30.493Z,13.35
2019-04-28T13:32:07.573Z,13.39
2019-04-28T13:34:43.972Z,13.42
2019-04-28T13:37:20.013Z,13.50
2019-04-28T13:40:00.564Z,13.51
2019-04-28T13:42:36.537Z,13.72
2019-04-28T13:45:14.464Z,13.71
2019-04-28T13:47:50.393Z,13.67
2019-04-28T13:50:31.364Z,13.49
2019-04-28T13:53:07.836Z,13.42
2019-04-28T13:55:48.706Z,13.42
2019-04-28T13:58:26.313Z,13.47
2019-04-28T14:01:07.322Z,13.40
2019-04-28T14:04:00.422Z,13.30
2019-04-28T14:06:38.020Z,13.26
2019-04-28T14:09:15.775Z,13.24
2019-04-28T14:11:51.772Z,13.28
2019-04-28T14:14:27.717Z,13.25
2019-04-28T14:17:03.844Z,13.28
2019-04-28T14:19:39.961Z,13.22
2019-04-28T14:22:16.009Z,13.15
2019-04-28T14:24:51.997Z,13.15
2019-04-28T14:27:28.196Z,12.96
2019-04-28T14:30:06.075Z,12.87
2019-04-28T14:32:42.099Z,12.78
2019-04-28T14:35:18.259Z,12.63
2019-04-28T14:37:54.230Z,12.57
2019-04-28T14:40:33.616Z,12.54
2019-04-28T14:43:10.335Z,12.54
2019-04-28T14:45:46.589Z,12.58
2019-04-28T14:48:22.535Z,12.50
2019-04-28T14:50:58.496Z,12.39
2019-04-28T14:53:34.671Z,12.40
2019-04-28T14:56:10.723Z,12.40
2019-04-28T14:58:47.641Z,12.41
2019-04-28T15:01:37.214Z,12.46
2019-04-28T15:04:16.603Z,12.38
2019-04-28T15:07:06.286Z,12.29
2019-04-28T15:10:00.272Z,12.23
2019-04-28T15:12:37.450Z,12.22
2019-04-28T15:15:13.721Z,12.28
2019-04-28T15:17:49.820Z,12.19
2019-04-28T15:20:26.020Z,12.15
2019-04-28T15:23:03.121Z,12.05
2019-04-28T15:25:39.183Z,11.95
2019-04-28T15:28:15.242Z,11.94
2019-04-28T15:30:51.302Z,11.94
2019-04-28T15:33:27.246Z,11.82
2019-04-28T15:36:03.215Z,11.77
2019-04-28T15:38:39.285Z,11.86
2019-04-28T15:41:21.808Z,11.95
2019-04-28T15:43:52.917Z,11.95
2019-04-28T15:46:28.873Z,11.89
2019-04-28T15:49:04.839Z,11.86
2019-04-28T15:51:40.728Z,11.84
2019-04-28T15:54:16.775Z,11.83
2019-04-28T15:56:52.703Z,11.77
2019-04-28T15:59:28.770Z,11.73
2019-04-28T16:02:04.866Z,11.79
2019-04-28T16:04:41.344Z,11.83
2019-04-28T16:07:24.656Z,11.85
2019-04-28T16:09:55.044Z,11.89
2019-04-28T16:12:31.102Z,11.85
2019-04-28T16:15:07.640Z,11.81
2019-04-28T16:17:43.625Z,11.79
2019-04-28T16:20:19.685Z,11.73
2019-04-28T16:22:55.958Z,11.73
2019-04-28T16:25:31.901Z,11.79
2019-04-28T16:28:09.404Z,11.78
2019-04-28T16:30:45.354Z,11.70
2019-04-28T16:33:21.306Z,11.62
2019-04-28T16:35:58.402Z,11.55
2019-04-28T16:38:34.359Z,11.52
2019-04-28T16:41:11.334Z,11.49
2019-04-28T16:43:47.944Z,11.38
2019-04-28T16:46:23.957Z,11.33
2019-04-28T16:48:59.918Z,11.32
2019-04-28T16:51:35.882Z,11.29
2019-04-28T16:54:11.941Z,11.24
2019-04-28T16:56:59.369Z,11.17
2019-04-28T16:59:46.073Z,11.15
2019-04-28T17:02:23.577Z,11.13
2019-04-28T17:04:59.521Z,11.12
2019-04-28T17:07:35.414Z,11.03
2019-04-28T17:10:11.540Z,10.99
2019-04-28T17:12:47.483Z,10.97
2019-04-28T17:15:23.655Z,10.99
2019-04-28T17:17:59.603Z,10.95
2019-04-28T17:20:35.748Z,10.88
2019-04-28T17:23:13.724Z,10.77
2019-04-28T17:25:50.035Z,10.75
2019-04-28T17:28:26.089Z,10.67
2019-04-28T17:31:02.119Z,10.60
2019-04-28T17:33:38.114Z,10.57
2019-04-28T17:36:14.061Z,10.53
2019-04-28T17:38:50.034Z,10.54
2019-04-28T17:41:26.282Z,10.50
2019-04-28T17:44:02.237Z,10.52
2019-04-28T17:46:38.311Z,10.50
2019-04-28T17:49:14.263Z,10.45
2019-04-28T17:51:50.800Z,10.40
2019-04-28T17:54:26.749Z,10.40
2019-04-28T17:57:02.737Z,10.32
2019-04-28T17:59:39.104Z,10.25
2019-04-28T18:02:32.876Z,10.25
2019-04-28T18:05:13.541Z,10.20
2019-04-28T18:07:50.740Z,10.16
2019-04-28T18:10:28.320Z,10.18
2019-04-28T18:13:04.439Z,10.11
2019-04-28T18:15:59.999Z,10.10
2019-04-28T18:18:37.487Z,10.11
2019-04-28T18:21:13.377Z,10.09
2019-04-28T18:23:49.412Z,10.10
2019-04-28T18:26:25.332Z,10.15
2019-04-28T18:29:01.735Z,10.14
2019-04-28T18:31:58.029Z,10.12
2019-04-28T18:34:47.748Z,10.07
2019-04-28T18:37:40.191Z,10.02
2019-04-28T18:40:27.083Z,10.00
2019-04-28T18:43:05.335Z,10.00
2019-04-28T18:45:41.266Z,9.99
2019-04-28T18:48:17.151Z,9.94
2019-04-28T18:50:53.106Z,9.95
2019-04-28T18:53:28.997Z,9.95
2019-04-28T18:56:04.953Z,9.98
2019-04-28T18:58:40.878Z,9.96
2019-04-28T19:01:33.750Z,9.91
2019-04-28T19:04:09.771Z,9.97
2019-04-28T19:06:45.716Z,9.97
2019-04-28T19:09:23.247Z,10.00
2019-04-28T19:12:06.741Z,9.97
2019-04-28T19:14:59.446Z,9.94
2019-04-28T19:17:43.197Z,9.95
2019-04-28T19:20:19.144Z,9.96
2019-04-28T19:22:55.077Z,9.97
2019-04-28T19:25:30.961Z,9.95
2019-04-28T19:28:07.865Z,9.90
2019-04-28T19:30:45.716Z,9.94
2019-04-28T19:33:22.240Z,9.92
2019-04-28T19:35:58.421Z,9.96
2019-04-28T19:38:34.367Z,9.95
2019-04-28T19:41:10.604Z,9.92
2019-04-28T19:43:46.553Z,9.89
2019-04-28T19:46:22.473Z,9.85
2019-04-28T19:48:58.527Z,9.83
2019-04-28T19:51:34.910Z,9.85
2019-04-28T19:54:11.508Z,9.83
2019-04-28T19:57:07.151Z,9.88
2019-04-28T20:00:01.716Z,9.86
2019-04-28T20:02:39.252Z,9.85
2019-04-28T20:05:15.168Z,9.84
2019-04-28T20:07:51.215Z,9.86
2019-04-28T20:10:27.137Z,9.81
2019-04-28T20:13:03.019Z,9.75
2019-04-28T20:15:39.030Z,9.79
2019-04-28T20:18:14.949Z,9.75
2019-04-28T20:20:50.861Z,9.76
2019-04-28T20:23:26.993Z,9.80
2019-04-28T20:26:03.114Z,9.79
2019-04-28T20:28:39.184Z,9.74
2019-04-28T20:31:15.068Z,9.73
2019-04-28T20:33:50.962Z,9.71
2019-04-28T20:36:32.972Z,9.71
2019-04-28T20:39:10.716Z,9.68
2019-04-28T20:41:48.133Z,9.66
2019-04-28T20:44:24.104Z,9.70
2019-04-28T20:47:00.030Z,9.71
2019-04-28T20:49:35.956Z,9.73
2019-04-28T20:52:11.898Z,9.70
2019-04-28T20:54:47.784Z,9.70
2019-04-28T20:57:23.716Z,9.70
2019-04-28T20:59:59.887Z,9.67
2019-04-28T21:02:37.605Z,9.65
2019-04-28T21:05:13.534Z,9.63
2019-04-28T21:07:49.467Z,9.61
2019-04-28T21:10:37.291Z,9.66
2019-04-28T21:13:03.039Z,9.59
2019-04-28T21:15:38.982Z,9.59
2019-04-28T21:18:14.925Z,9.62
2019-04-28T21:20:51.382Z,9.67
2019-04-28T21:23:27.307Z,9.66
2019-04-28T21:26:03.185Z,9.63
2019-04-28T21:28:39.312Z,9.64
2019-04-28T21:31:15.228Z,9.61
2019-04-28T21:33:51.164Z,9.66
2019-04-28T21:36:27.108Z,9.64
2019-04-28T21:39:03.026Z,9.63
2019-04-28T21:41:40.716Z,9.68
2019-04-28T21:44:18.215Z,9.65
2019-04-28T21:46:58.716Z,9.66
2019-04-28T21:49:36.205Z,9.60
2019-04-28T21:52:12.381Z,9.59
2019-04-28T21:54:48.338Z,9.60
2019-04-28T21:57:24.224Z,9.53
2019-04-28T22:00:00.171Z,9.57
2019-04-28T22:02:36.188Z,9.56
2019-04-28T22:05:12.343Z,9.55
2019-04-28T22:07:49.518Z,9.56
2019-04-28T22:10:25.455Z,9.54
2019-04-28T22:13:01.416Z,9.54
2019-04-28T22:15:37.368Z,9.50
2019-04-28T22:18:13.325Z,9.46
2019-04-28T22:20:50.420Z,9.42
2019-04-28T22:23:40.294Z,9.43
2019-04-28T22:26:32.941Z,9.46
2019-04-28T22:29:09.526Z,9.43
2019-04-28T22:31:45.957Z,9.41
2019-04-28T22:34:22.039Z,9.42
2019-04-28T22:36:57.991Z,9.41
2019-04-28T22:39:33.961Z,9.45
2019-04-28T22:42:11.410Z,9.42
2019-04-28T22:44:47.473Z,9.42
2019-04-28T22:47:23.416Z,9.41
2019-04-28T22:49:59.415Z,9.41
2019-04-28T22:52:35.381Z,9.40
2019-04-28T22:55:12.859Z,9.40
2019-04-28T22:57:50.468Z,9.35
2019-04-28T23:00:41.159Z,9.30
2019-04-28T23:03:25.014Z,9.26
2019-04-28T23:06:01.059Z,9.21
2019-04-28T23:08:37.015Z,9.22
2019-04-28T23:11:12.920Z,9.22
2019-04-28T23:13:48.828Z,9.25
2019-04-28T23:16:24.721Z,9.21
2019-04-28T23:19:01.842Z,9.22
2019-04-28T23:21:40.430Z,9.19
2019-04-28T23:24:16.358Z,9.19
2019-04-28T23:26:52.315Z,9.17
2019-04-28T23:29:30.567Z,9.16
2019-04-28T23:32:06.103Z,9.12
2019-04-28T23:34:42.065Z,9.15
2019-04-28T23:37:17.986Z,9.14
2019-04-28T23:39:53.894Z,9.08
2019-04-28T23:42:34.381Z,9.14
2019-04-28T23:45:12.253Z,9.12
2019-04-28T23:47:48.127Z,9.09
2019-04-28T23:50:41.072Z,9.10
2019-04-28T23:53:18.581Z,9.10
2019-04-28T23:55:54.505Z,9.10
2019-04-28T23:58:30.428Z,9.14
